Time;durP1;ratioP1;P1;durP2;ratioP2;P2;SDS_P1;SDS_P2;PMS_P1;PMS_P2;Temp;Humidity;BMP_temperature;BMP_pressure;BME280_temperature;BME280_humidity;BME280_pressure;Samples;Min_cycle;Max_cycle;Signal;HPM_P1;HPM_P2
2021/06/02 00:01:09;;;;;;;;;18.67;18.67;;;;;15.30;90.07;100530.97;5054984;28;9378;-74
2021/06/02 00:04:07;;;;;;;;;22.00;21.50;;;;;15.27;90.11;100530.91;5053119;28;9475;-74
2021/06/02 00:07:06;;;;;;;;;22.50;22.50;;;;;15.44;89.92;100535.22;5054265;28;9536;-74
2021/06/02 00:10:02;;;;;;;;;29.25;28.50;;;;;15.42;89.48;100512.50;5053318;28;9381;-74
2021/06/02 00:12:58;;;;;;;;;23.67;23.67;;;;;15.42;90.10;100506.94;5070557;28;9678;-74
2021/06/02 00:15:54;;;;;;;;;17.75;17.75;;;;;15.43;90.27;100494.59;5072408;28;9490;-73
2021/06/02 00:18:50;;;;;;;;;23.25;23.25;;;;;15.39;90.55;100483.38;5073136;28;9601;-73
2021/06/02 00:21:45;;;;;;;;;23.75;23.75;;;;;15.61;89.24;100492.97;5073089;28;9492;-73
2021/06/02 00:24:41;;;;;;;;;26.50;26.50;;;;;15.65;88.90;100479.94;5073248;28;9770;-73
2021/06/02 00:27:39;;;;;;;;;31.25;31.25;;;;;15.77;88.67;100485.31;5072972;28;9699;-74
2021/06/02 00:30:36;;;;;;;;;23.33;22.67;;;;;15.78;88.35;100483.31;5072993;28;9664;-74
2021/06/02 00:33:32;;;;;;;;;25.75;25.25;;;;;15.71;88.66;100494.34;5074420;28;9477;-73
2021/06/02 00:36:29;;;;;;;;;30.25;30.25;;;;;15.64;89.46;100499.78;5074357;28;9559;-73
2021/06/02 00:39:26;;;;;;;;;21.00;21.00;;;;;15.90;88.92;100505.47;5072655;28;9596;-73
2021/06/02 00:42:23;;;;;;;;;22.25;22.25;;;;;15.73;88.60;100497.59;5060090;28;9463;-74
2021/06/02 00:45:20;;;;;;;;;30.75;29.50;;;;;15.64;89.28;100505.38;5054381;28;9597;-74
2021/06/02 00:48:18;;;;;;;;;23.25;23.25;;;;;15.76;89.38;100508.78;5053680;28;9862;-74
2021/06/02 00:51:13;;;;;;;;;30.50;30.50;;;;;15.71;89.45;100511.88;5053999;28;9616;-74
2021/06/02 00:54:09;;;;;;;;;26.00;26.00;;;;;15.79;88.97;100505.25;5051658;28;9603;-74
2021/06/02 00:57:10;;;;;;;;;27.50;27.50;;;;;15.89;89.18;100511.41;5052513;28;9452;-74
2021/06/02 01:00:10;;;;;;;;;24.50;24.50;;;;;15.65;89.84;100515.38;5052514;28;10327;-74
2021/06/02 01:03:08;;;;;;;;;19.00;19.00;;;;;15.58;89.90;100516.00;5052516;28;10355;-74
2021/06/02 01:06:04;;;;;;;;;23.75;23.75;;;;;15.47;90.50;100512.19;5053279;28;9389;-74
2021/06/02 01:09:05;;;;;;;;;24.25;24.25;;;;;15.52;90.44;100514.69;5054003;28;9594;-74
2021/06/02 01:12:01;;;;;;;;;23.00;23.00;;;;;15.45;91.32;100508.97;5040644;28;9441;-73
2021/06/02 01:14:58;;;;;;;;;17.00;17.00;;;;;15.38;91.43;100506.84;5053652;28;9614;-74
2021/06/02 01:17:54;;;;;;;;;18.00;18.00;;;;;15.37;91.77;100502.44;5053894;28;9488;-74
2021/06/02 01:20:50;;;;;;;;;26.00;25.00;;;;;15.37;92.10;100507.22;5052213;28;9375;-74
2021/06/02 01:23:48;;;;;;;;;20.75;19.50;;;;;15.42;92.28;100491.00;5052270;28;9682;-74
2021/06/02 01:26:44;;;;;;;;;24.00;23.67;;;;;15.66;91.68;100492.69;5050785;28;9374;-74
2021/06/02 01:29:46;;;;;;;;;26.75;26.75;;;;;15.61;91.70;100487.41;5051789;28;9451;-74
2021/06/02 01:32:48;;;;;;;;;26.50;25.00;;;;;15.63;91.66;100496.19;5068979;28;9734;-74
2021/06/02 01:35:49;;;;;;;;;20.00;20.00;;;;;15.57;91.69;100492.09;5073617;28;9513;-74
2021/06/02 01:39:06;;;;;;;;;27.00;26.75;;;;;15.74;91.28;100494.44;5073085;28;9224;-74
2021/06/02 01:42:25;;;;;;;;;32.50;28.75;;;;;15.72;91.47;100496.78;5051620;28;10273;-74
2021/06/02 01:45:50;;;;;;;;;22.00;20.50;;;;;15.85;91.12;100498.19;5052133;28;9459;-74
2021/06/02 01:48:52;;;;;;;;;23.50;23.50;;;;;15.88;90.72;100504.25;5052094;28;9564;-74
2021/06/02 01:52:22;;;;;;;;;28.00;26.00;;;;;15.83;91.06;100485.81;5052045;28;9604;-74
2021/06/02 01:55:44;;;;;;;;;23.67;23.67;;;;;15.71;91.56;100485.97;5051356;28;9469;-74
2021/06/02 01:59:21;;;;;;;;;19.67;19.33;;;;;15.80;91.36;100498.53;5051896;28;9505;-74
2021/06/02 02:02:54;;;;;;;;;21.67;21.67;;;;;15.75;91.28;100501.63;5050416;28;9303;-74
2021/06/02 02:06:11;;;;;;;;;18.33;18.33;;;;;15.83;90.91;100492.19;5031955;28;9390;-74
2021/06/02 02:08:55;;;;;;;;;20.25;19.00;;;;;15.93;91.01;100501.94;5032365;28;9499;-74
2021/06/02 02:11:51;;;;;;;;;24.25;24.00;;;;;15.75;91.21;100492.44;5072189;28;9695;-74
2021/06/02 02:15:06;;;;;;;;;19.50;19.25;;;;;15.79;91.13;100496.91;5072718;28;9456;-74
2021/06/02 02:18:22;;;;;;;;;20.00;20.00;;;;;15.71;91.93;100492.38;5071100;28;9522;-74
2021/06/02 02:21:39;;;;;;;;;21.75;21.75;;;;;15.93;91.03;100492.75;5072021;28;9478;-74
2021/06/02 02:24:55;;;;;;;;;23.00;23.00;;;;;15.83;91.28;100494.19;5072946;28;9439;-74
2021/06/02 02:28:09;;;;;;;;;24.67;24.33;;;;;15.89;91.08;100495.50;5074631;28;9438;-74
2021/06/02 02:31:30;;;;;;;;;23.00;23.00;;;;;15.89;90.70;100491.91;5054769;28;9516;-74
2021/06/02 02:34:50;;;;;;;;;27.00;26.25;;;;;15.92;90.65;100483.59;5054382;28;9415;-74
2021/06/02 02:38:04;;;;;;;;;26.00;26.00;;;;;15.95;90.84;100493.19;5054352;28;10323;-74
2021/06/02 02:41:38;;;;;;;;;25.00;25.00;;;;;16.16;90.48;100499.13;5042354;28;9449;-74
2021/06/02 02:45:04;;;;;;;;;24.50;24.50;;;;;16.06;90.72;100495.00;4992778;28;9432;-75
2021/06/02 02:48:19;;;;;;;;;28.00;27.00;;;;;16.01;90.78;100492.50;4986735;28;9468;-75
2021/06/02 02:51:35;;;;;;;;;22.00;22.00;;;;;15.93;90.88;100489.97;5053938;28;9336;-74
2021/06/02 02:54:53;;;;;;;;;24.67;23.33;;;;;16.02;91.03;100484.94;5054204;28;9476;-74
2021/06/02 02:58:14;;;;;;;;;24.67;24.67;;;;;16.11;91.05;100494.69;5053949;28;10016;-74
2021/06/02 03:01:25;;;;;;;;;16.67;16.67;;;;;16.08;90.77;100498.19;5056570;28;9314;-75
2021/06/02 03:04:25;;;;;;;;;22.33;22.33;;;;;15.93;91.18;100487.97;5053708;28;9386;-74
2021/06/02 03:07:22;;;;;;;;;27.33;25.67;;;;;15.85;92.01;100491.81;5040741;28;9375;-74
2021/06/02 03:10:19;;;;;;;;;28.25;28.25;;;;;16.05;91.29;100489.78;5033721;28;9414;-75
2021/06/02 03:13:33;;;;;;;;;30.00;30.00;;;;;16.22;90.74;100485.69;5033663;28;9535;-75
2021/06/02 03:16:36;;;;;;;;;23.00;23.00;;;;;16.36;89.84;100481.13;5033606;28;9234;-75
2021/06/02 03:19:53;;;;;;;;;31.00;30.00;;;;;16.40;89.69;100478.38;5022080;28;9467;-75
2021/06/02 03:23:01;;;;;;;;;26.00;26.00;;;;;16.50;89.06;100477.75;5020469;28;9389;-75
2021/06/02 03:26:08;;;;;;;;;26.50;26.00;;;;;16.45;89.66;100482.84;5033734;28;9338;-75
2021/06/02 03:29:28;;;;;;;;;30.00;28.67;;;;;16.39;89.66;100487.94;5038118;28;9300;-74
2021/06/02 03:32:48;;;;;;;;;28.67;27.67;;;;;16.45;89.80;100492.03;5053336;28;9252;-74
2021/06/02 03:36:02;;;;;;;;;29.75;29.75;;;;;16.32;90.56;100498.97;5039605;28;9356;-74
2021/06/02 03:39:22;;;;;;;;;28.00;27.67;;;;;16.27;90.93;100491.75;5044904;28;9541;-75
2021/06/02 03:42:34;;;;;;;;;35.75;33.75;;;;;16.42;90.50;100497.56;5038177;28;9382;-74
2021/06/02 03:46:07;;;;;;;;;29.67;29.00;;;;;16.47;90.35;100502.81;5041221;28;9817;-74
2021/06/02 03:49:32;;;;;;;;;26.00;26.00;;;;;16.51;89.54;100498.09;5042668;28;9555;-74
2021/06/02 03:53:02;;;;;;;;;31.67;29.67;;;;;16.43;90.01;100501.97;5052927;28;9367;-74
2021/06/02 03:56:33;;;;;;;;;24.67;24.00;;;;;16.48;89.83;100507.22;5054372;28;10192;-74
2021/06/02 03:59:39;;;;;;;;;29.50;29.00;;;;;16.59;89.33;100491.44;5052873;28;9379;-74
2021/06/02 04:02:50;;;;;;;;;33.25;30.00;;;;;16.56;89.47;100489.38;5052697;28;9443;-74
2021/06/02 04:06:04;;;;;;;;;31.33;28.33;;;;;16.52;89.30;100494.13;5054428;28;9660;-75
2021/06/02 04:09:06;;;;;;;;;29.25;28.00;;;;;16.46;89.76;100496.41;5052624;28;9464;-74
2021/06/02 04:12:24;;;;;;;;;26.67;26.67;;;;;16.47;89.68;100502.81;5039271;28;9448;-74
2021/06/02 04:15:22;;;;;;;;;30.50;30.50;;;;;16.55;89.13;100494.16;5032581;28;9480;-74
2021/06/02 04:18:21;;;;;;;;;27.33;27.33;;;;;16.42;90.06;100498.38;5037241;28;9471;-74
2021/06/02 04:21:21;;;;;;;;;24.33;23.67;;;;;16.71;89.09;100496.00;5072080;28;9279;-74
2021/06/02 04:24:18;;;;;;;;;28.75;28.50;;;;;16.68;89.05;100505.91;5072332;28;9314;-74
2021/06/02 04:27:17;;;;;;;;;29.00;28.00;;;;;17.10;87.87;100502.13;5055022;28;9514;-74
2021/06/02 04:30:16;;;;;;;;;29.33;28.00;;;;;17.06;87.18;100510.47;5067440;28;9283;-74
2021/06/02 04:33:23;;;;;;;;;28.67;28.67;;;;;16.95;87.96;100513.13;5073555;28;9290;-75
2021/06/02 04:36:24;;;;;;;;;24.33;24.33;;;;;16.89;88.38;100511.03;5073740;28;9421;-74
2021/06/02 04:39:21;;;;;;;;;27.67;26.33;;;;;16.80;88.49;100510.53;5057022;28;9245;-74
2021/06/02 04:42:18;;;;;;;;;28.67;28.67;;;;;17.01;87.68;100516.38;5072057;28;9363;-75
2021/06/02 04:45:22;;;;;;;;;21.33;20.67;;;;;17.01;87.58;100521.97;5072383;28;9314;-74
2021/06/02 04:48:18;;;;;;;;;29.67;29.67;;;;;17.09;87.55;100525.66;5066096;28;9316;-74
2021/06/02 04:52:01;;;;;;;;;30.00;28.33;;;;;17.28;86.96;100533.13;5071912;28;9312;-74
2021/06/02 04:55:22;;;;;;;;;27.67;27.67;;;;;17.15;86.96;100532.53;5057269;28;9175;-74
2021/06/02 04:58:41;;;;;;;;;30.33;30.33;;;;;17.06;87.05;100532.03;5046179;28;9218;-74
2021/06/02 05:02:01;;;;;;;;;29.33;25.00;;;;;17.12;87.17;100527.72;5057776;28;9236;-74
2021/06/02 05:05:34;;;;;;;;;24.33;24.33;;;;;17.22;87.13;100524.25;5031713;28;9197;-74
2021/06/02 05:08:58;;;;;;;;;26.00;23.67;;;;;17.19;86.34;100537.00;5060235;28;9290;-74
2021/06/02 05:12:12;;;;;;;;;28.00;28.00;;;;;17.13;86.78;100538.50;5070153;28;9232;-75
2021/06/02 05:15:23;;;;;;;;;22.67;22.67;;;;;17.26;86.35;100530.69;5071263;28;9220;-74
2021/06/02 05:18:36;;;;;;;;;22.67;22.67;;;;;17.45;86.59;100533.31;5070139;28;9066;-74
2021/06/02 05:22:06;;;;;;;;;24.33;24.33;;;;;17.45;85.58;100524.13;5071731;28;9040;-74
2021/06/02 05:25:26;;;;;;;;;20.67;20.00;;;;;17.56;85.14;100525.06;5065561;28;9171;-75
2021/06/02 05:28:55;;;;;;;;;20.67;20.67;;;;;17.78;84.08;100534.50;5053364;28;8954;-74
2021/06/02 05:32:18;;;;;;;;;18.75;18.50;;;;;17.96;83.78;100535.50;5056368;28;8982;-74
2021/06/02 05:35:38;;;;;;;;;23.25;21.50;;;;;17.95;83.16;100539.50;5057919;28;8951;-74
2021/06/02 05:39:09;;;;;;;;;19.75;19.75;;;;;17.87;83.35;100540.63;5056872;28;8840;-74
2021/06/02 05:42:34;;;;;;;;;16.25;16.25;;;;;18.06;82.86;100539.59;5070044;28;8818;-74
2021/06/02 05:45:29;;;;;;;;;16.00;16.00;;;;;18.18;82.67;100535.72;5066929;28;8841;-74
2021/06/02 05:49:02;;;;;;;;;6.75;5.75;;;;;18.23;81.46;100546.53;5071486;28;8852;-74
2021/06/02 05:52:19;;;;;;;;;12.00;12.00;;;;;18.18;81.62;100544.13;5071499;28;8852;-74
2021/06/02 05:55:20;;;;;;;;;12.75;12.75;;;;;18.26;81.29;100542.97;5060389;28;8906;-74
2021/06/02 05:58:44;;;;;;;;;21.25;21.25;;;;;18.37;81.13;100548.66;5066155;28;8904;-73
2021/06/02 06:01:54;;;;;;;;;13.50;13.25;;;;;17.97;81.24;100539.09;5041909;28;8943;-74
2021/06/02 06:04:56;;;;;;;;;14.75;14.00;;;;;18.25;81.03;100549.78;5044393;28;8842;-74
2021/06/02 06:08:33;;;;;;;;;14.00;14.00;;;;;17.99;81.08;100548.72;5054615;28;8852;-74
2021/06/02 06:11:51;;;;;;;;;14.00;13.50;;;;;18.02;81.47;100550.75;5027542;28;8836;-74
2021/06/02 06:15:25;;;;;;;;;38.33;33.33;;;;;18.32;81.62;100550.63;5045499;28;8821;-75
2021/06/02 06:18:42;;;;;;;;;28.50;26.75;;;;;18.68;80.29;100553.72;5072692;28;9198;-76
2021/06/02 06:22:02;;;;;;;;;19.50;18.75;;;;;18.48;79.12;100550.38;5052717;28;8820;-76
2021/06/02 06:25:03;;;;;;;;;38.00;32.33;;;;;18.86;79.48;100545.44;5055699;28;8923;-75
2021/06/02 06:28:15;;;;;;;;;18.75;18.75;;;;;18.51;80.07;100551.56;5053960;28;8901;-74
2021/06/02 06:31:19;;;;;;;;;22.00;21.00;;;;;18.65;79.24;100562.09;5049222;28;8837;-75
2021/06/02 06:34:18;;;;;;;;;20.75;19.50;;;;;18.45;80.02;100567.13;5034323;28;8838;-74
2021/06/02 06:37:17;;;;;;;;;24.75;23.75;;;;;18.91;79.27;100570.28;5062976;28;8881;-74
2021/06/02 06:40:16;;;;;;;;;26.50;25.00;;;;;19.20;78.95;100567.66;5074359;28;8796;-74
2021/06/02 06:43:14;;;;;;;;;28.50;27.50;;;;;18.81;79.13;100565.44;5036131;28;8838;-74
2021/06/02 06:46:11;;;;;;;;;23.25;23.25;;;;;18.82;79.21;100562.25;5052796;28;8821;-74
2021/06/02 06:49:10;;;;;;;;;31.75;29.75;;;;;18.96;78.74;100571.94;5052929;28;8845;-74
2021/06/02 06:52:06;;;;;;;;;25.50;24.25;;;;;18.87;78.45;100570.28;5052486;28;8825;-75
2021/06/02 06:55:05;;;;;;;;;26.50;25.50;;;;;18.78;78.62;100585.81;5049413;28;8958;-75
2021/06/02 06:58:04;;;;;;;;;22.25;22.25;;;;;18.50;79.80;100573.19;5040479;28;8852;-74
2021/06/02 07:01:00;;;;;;;;;24.75;24.75;;;;;18.90;78.65;100591.13;5046045;28;8898;-74
2021/06/02 07:03:57;;;;;;;;;28.75;28.00;;;;;18.77;78.20;100582.22;5069484;28;8832;-74
2021/06/02 07:06:54;;;;;;;;;27.00;26.50;;;;;18.82;78.59;100581.84;5040159;28;8836;-75
2021/06/02 07:09:50;;;;;;;;;72.25;61.25;;;;;19.02;78.41;100584.41;5042772;28;8830;-74
2021/06/02 07:12:47;;;;;;;;;67.00;53.00;;;;;19.19;77.61;100580.88;5033482;28;11318;-76
2021/06/02 07:15:17;;;;;;;;;24.00;22.75;;;;;19.30;76.46;100584.53;5034958;28;11994;-74
2021/06/02 07:18:18;;;;;;;;;61.50;51.25;;;;;19.16;77.55;100585.25;5029320;28;8846;-74
2021/06/02 07:21:08;;;;;;;;;21.25;21.25;;;;;18.75;77.53;100587.41;5017080;28;10622;-74
2021/06/02 07:23:51;;;;;;;;;33.50;32.25;;;;;18.74;78.24;100590.59;5028294;28;8885;-73
2021/06/02 07:26:23;;;;;;;;;16.50;15.75;;;;;18.85;77.38;100580.25;5036408;28;8854;-75
2021/06/02 07:29:20;;;;;;;;;60.50;50.75;;;;;19.26;77.25;100575.31;5022196;28;8827;-76
2021/06/02 07:32:20;;;;;;;;;34.67;32.67;;;;;19.20;76.36;100571.28;5032218;28;10533;-76
2021/06/02 07:35:19;;;;;;;;;20.75;16.75;;;;;18.97;77.36;100568.75;5032755;28;9186;-75
2021/06/02 07:37:50;;;;;;;;;50.00;43.33;;;;;19.01;77.92;100571.56;5033675;28;8874;-75
2021/06/02 07:40:52;;;;;;;;;27.00;26.00;;;;;19.08;77.27;100574.41;5030808;28;9533;-75
2021/06/02 07:44:53;;;;;;;;;15.00;15.00;;;;;18.94;78.19;100569.53;5032492;28;8884;-76
2021/06/02 07:47:52;;;;;;;;;14.50;14.50;;;;;18.97;77.19;100571.53;5024529;28;8922;-76
2021/06/02 07:50:48;;;;;;;;;27.00;27.00;;;;;19.07;77.13;100570.00;5016325;28;8869;-75
2021/06/02 07:53:50;;;;;;;;;18.50;18.50;;;;;19.34;76.65;100570.56;5032640;28;8860;-75
2021/06/02 07:56:22;;;;;;;;;12.50;12.50;;;;;19.39;75.59;100581.38;5051196;28;9679;-75
2021/06/02 07:59:19;;;;;;;;;14.00;14.00;;;;;19.04;76.14;100585.59;5052753;28;8916;-76
2021/06/02 08:02:14;;;;;;;;;13.50;13.50;;;;;18.68;77.00;100578.94;5036029;28;8826;-75
2021/06/02 08:05:13;;;;;;;;;18.75;18.75;;;;;19.06;77.00;100594.41;5047085;28;8840;-75
2021/06/02 08:08:09;;;;;;;;;14.25;14.25;;;;;18.88;77.01;100591.50;5049050;28;8856;-75
2021/06/02 08:11:05;;;;;;;;;16.25;16.25;;;;;18.99;76.57;100605.56;5052701;28;8839;-75
2021/06/02 08:13:34;;;;;;;;;14.75;14.75;;;;;19.04;76.38;100596.00;5070835;28;9603;-75
2021/06/02 08:16:29;;;;;;;;;18.50;17.75;;;;;19.41;75.81;100593.81;5051569;28;9529;-75
2021/06/02 08:18:57;;;;;;;;;18.00;18.00;;;;;19.52;75.16;100601.47;5054192;28;8948;-75
2021/06/02 08:21:53;;;;;;;;;17.00;16.75;;;;;19.69;74.13;100601.56;5032317;28;8838;-74
2021/06/02 08:24:48;;;;;;;;;13.75;13.75;;;;;19.51;75.64;100602.66;5046942;28;8810;-75
2021/06/02 08:27:30;;;;;;;;;14.00;14.00;;;;;19.45;76.11;100607.84;5052946;28;8829;-75
2021/06/02 08:30:26;;;;;;;;;14.75;14.75;;;;;19.29;77.16;100605.38;5052790;28;8896;-75
2021/06/02 08:32:54;;;;;;;;;11.75;11.75;;;;;19.10;77.12;100612.06;5053336;28;8843;-75
2021/06/02 08:35:50;;;;;;;;;15.50;15.50;;;;;19.34;77.25;100618.22;5053570;28;8929;-78
2021/06/02 08:38:45;;;;;;;;;14.25;14.25;;;;;19.60;75.88;100617.97;5053650;28;8855;-78
2021/06/02 08:41:41;;;;;;;;;15.50;15.00;;;;;19.49;76.51;100622.69;5052251;28;8840;-79
2021/06/02 08:44:40;;;;;;;;;12.00;12.00;;;;;19.62;75.76;100632.41;5039005;28;8844;-78
2021/06/02 08:47:36;;;;;;;;;14.75;14.25;;;;;19.56;76.15;100633.97;5052050;28;8848;-79
2021/06/02 08:50:32;;;;;;;;;11.75;11.75;;;;;19.25;77.48;100643.81;5051863;28;8843;-78
2021/06/02 08:53:27;;;;;;;;;17.25;16.75;;;;;18.99;78.34;100650.41;5038782;28;8882;-78
2021/06/02 08:56:23;;;;;;;;;14.75;14.75;;;;;19.09;78.29;100644.09;5053410;28;8844;-78
2021/06/02 08:59:10;;;;;;;;;13.00;13.00;;;;;18.84;78.97;100645.91;5052608;28;8875;-77
2021/06/02 09:01:38;;;;;;;;;11.00;11.00;;;;;19.09;78.35;100652.50;5053134;28;8843;-78
2021/06/02 09:04:34;;;;;;;;;13.00;13.00;;;;;19.18;77.73;100649.38;5051635;28;8855;-79
2021/06/02 09:07:31;;;;;;;;;13.00;13.00;;;;;19.22;77.97;100652.19;5052665;28;8848;-78
2021/06/02 09:10:27;;;;;;;;;13.25;13.25;;;;;19.36;77.70;100643.84;5051666;28;8868;-79
2021/06/02 09:12:59;;;;;;;;;11.75;11.75;;;;;19.24;77.69;100658.19;5035486;28;8933;-79
2021/06/02 09:15:54;;;;;;;;;11.75;11.75;;;;;19.26;79.27;100664.22;5051698;28;9018;-79
2021/06/02 09:19:01;;;;;;;;;9.50;9.50;;;;;19.15;79.41;100670.56;5051626;28;8850;-76
2021/06/02 09:21:57;;;;;;;;;12.75;12.75;;;;;18.91;80.46;100667.56;5051431;28;8844;-79
2021/06/02 09:24:54;;;;;;;;;10.75;10.75;;;;;18.75;80.71;100665.84;5051603;28;8951;-78
2021/06/02 09:27:55;;;;;;;;;8.00;8.00;;;;;19.17;78.64;100670.19;5052917;28;8910;-79
2021/06/02 09:30:51;;;;;;;;;10.25;10.25;;;;;19.09;79.38;100669.31;5051382;28;8832;-77
2021/06/02 09:33:46;;;;;;;;;9.75;9.25;;;;;19.02;79.17;100674.88;5055565;28;8872;-78
2021/06/02 09:36:44;;;;;;;;;8.25;7.00;;;;;18.99;79.54;100675.63;5054699;28;8831;-76
2021/06/02 09:39:44;;;;;;;;;7.00;7.00;;;;;18.74;81.32;100678.25;5056208;28;8842;-78
2021/06/02 09:42:28;;;;;;;;;7.25;7.25;;;;;18.83;81.04;100678.72;5056413;28;8922;-77
2021/06/02 09:45:24;;;;;;;;;8.50;8.50;;;;;18.50;81.87;100667.59;5056330;28;9012;-78
2021/06/02 09:48:21;;;;;;;;;6.00;6.00;;;;;18.71;81.49;100678.19;5056252;28;8846;-79
2021/06/02 09:51:39;;;;;;;;;8.75;8.75;;;;;18.83;81.82;100669.50;5055862;28;8862;-79
2021/06/02 09:54:34;;;;;;;;;5.00;5.00;;;;;18.69;81.93;100677.78;5055776;28;8931;-78
2021/06/02 09:57:30;;;;;;;;;6.50;6.50;;;;;18.74;82.23;100680.25;5056037;28;8854;-78
2021/06/02 10:00:29;;;;;;;;;6.25;6.25;;;;;18.98;80.42;100695.66;5055717;28;8867;-79
2021/06/02 10:03:32;;;;;;;;;6.25;6.25;;;;;19.01;80.17;100692.88;5053741;28;8878;-78
2021/06/02 10:06:44;;;;;;;;;8.00;8.00;;;;;19.23;79.54;100691.03;5035150;28;9042;-79
2021/06/02 10:09:47;;;;;;;;;12.75;12.75;;;;;19.23;79.15;100695.84;5034873;28;8914;-79
2021/06/02 10:13:18;;;;;;;;;9.00;9.00;;;;;19.47;77.67;100694.38;5033735;28;8882;-79
2021/06/02 11:36:04;;;;;;;;;14.25;14.25;;;;;18.66;83.58;100710.19;5055018;28;8808;-76
2021/06/02 11:39:06;;;;;;;;;16.25;16.25;;;;;18.75;83.14;100712.66;5023050;28;8841;-75
2021/06/02 11:42:06;;;;;;;;;11.25;11.25;;;;;18.61;82.86;100714.09;5039349;28;8863;-76
2021/06/02 11:45:07;;;;;;;;;13.50;13.50;;;;;18.77;82.64;100718.69;5055645;28;8888;-75
2021/06/02 11:47:49;;;;;;;;;11.75;11.75;;;;;18.50;83.76;100727.19;5054289;28;8871;-76
2021/06/02 11:51:01;;;;;;;;;13.50;13.50;;;;;18.16;85.62;100717.19;5053808;28;8845;-76
2021/06/02 11:54:00;;;;;;;;;14.25;14.25;;;;;18.33;85.29;100720.22;5040779;28;8861;-75
2021/06/02 11:56:47;;;;;;;;;9.50;9.50;;;;;18.24;85.51;100722.50;5044739;28;8833;-74
2021/06/02 11:59:20;;;;;;;;;8.75;7.50;;;;;18.38;85.13;100724.66;5053778;28;8846;-74
2021/06/02 12:02:15;;;;;;;;;9.25;9.00;;;;;18.20;85.64;100723.66;5054067;28;8841;-74
2021/06/02 12:04:44;;;;;;;;;12.25;12.25;;;;;18.09;86.26;100720.72;5054493;28;8841;-74
2021/06/02 13:08:19;;;;;;;;;2.50;2.50;;;;;18.64;84.09;100740.53;5052246;28;8856;-76
2021/06/02 13:10:47;;;;;;;;;3.50;3.50;;;;;18.70;83.68;100733.41;5052830;28;8883;-77
2021/06/02 13:13:29;;;;;;;;;3.00;3.00;;;;;18.93;82.16;100740.84;5052932;28;8878;-77
2021/06/02 13:15:57;;;;;;;;;3.50;3.50;;;;;18.98;83.04;100743.28;5067968;28;8879;-77
2021/06/02 13:19:07;;;;;;;;;3.00;3.00;;;;;19.17;80.75;100740.28;5052585;28;8929;-77
2021/06/02 13:21:49;;;;;;;;;3.25;3.25;;;;;19.16;80.56;100745.03;5035831;28;8921;-76
2021/06/02 13:24:44;;;;;;;;;3.00;3.00;;;;;19.32;79.18;100739.19;5051574;28;8874;-77
2021/06/02 13:27:43;;;;;;;;;4.00;4.00;;;;;19.23;80.73;100740.69;5038307;28;8926;-76
2021/06/02 13:31:03;;;;;;;;;2.00;2.00;;;;;18.90;82.69;100734.03;5051357;28;8844;-76
2021/06/02 13:34:00;;;;;;;;;5.00;5.00;;;;;19.02;81.98;100739.34;5040898;28;8840;-77
2021/06/02 13:36:56;;;;;;;;;3.00;3.00;;;;;18.84;82.88;100736.34;5051538;28;8958;-77
2021/06/02 13:40:12;;;;;;;;;2.75;2.75;;;;;18.87;82.47;100732.00;5045799;28;8843;-76
2021/06/02 13:43:17;;;;;;;;;2.75;2.75;;;;;18.78;83.10;100743.50;5052898;28;8941;-76
2021/06/02 13:46:13;;;;;;;;;4.00;4.00;;;;;18.74;83.37;100739.06;5051723;28;8828;-77
2021/06/02 13:49:11;;;;;;;;;2.00;2.00;;;;;18.74;83.12;100747.47;5063235;28;8874;-77
2021/06/02 13:52:07;;;;;;;;;2.50;2.50;;;;;18.54;85.14;100738.44;5029933;28;8854;-76
2021/06/02 13:55:40;;;;;;;;;3.00;3.00;;;;;18.99;82.15;100737.28;5011037;28;8863;-76
2021/06/02 13:58:39;;;;;;;;;2.25;2.25;;;;;18.94;82.67;100746.06;5035097;28;8848;-77
2021/06/02 14:01:43;;;;;;;;;9.75;9.75;;;;;19.02;81.15;100752.56;5046437;28;8948;-77
2021/06/02 14:04:43;;;;;;;;;5.25;5.25;;;;;18.83;82.39;100754.38;4984224;28;8942;-76
2021/06/02 14:16:21;;;;;;;;;4.00;4.00;;;;;19.26;79.18;100753.94;5014217;28;9617;-78
2021/06/02 14:19:35;;;;;;;;;3.00;3.00;;;;;19.08;80.11;100759.38;4981830;28;8931;-77
2021/06/02 14:22:51;;;;;;;;;3.25;3.25;;;;;18.84;81.17;100752.38;4990470;28;8862;-77
2021/06/02 14:25:48;;;;;;;;;4.00;4.00;;;;;18.73;82.34;100759.88;4976460;28;8864;-77
2021/06/02 14:28:44;;;;;;;;;3.75;3.75;;;;;18.55;82.60;100762.44;5011401;28;8924;-78
2021/06/02 14:31:42;;;;;;;;;3.00;3.00;;;;;18.75;82.11;100763.88;5036356;28;8841;-78
2021/06/02 14:34:42;;;;;;;;;2.00;2.00;;;;;18.70;82.05;100763.44;5033577;28;9734;-77
2021/06/02 14:37:42;;;;;;;;;2.75;2.75;;;;;18.55;82.71;100760.44;5033764;28;8885;-78
2021/06/02 14:40:39;;;;;;;;;4.00;4.00;;;;;18.72;82.17;100767.47;5035015;28;8857;-77
2021/06/02 14:43:28;;;;;;;;;3.00;3.00;;;;;18.82;81.22;100777.97;5034946;28;8885;-77
2021/06/02 14:46:24;;;;;;;;;2.75;2.75;;;;;18.74;81.75;100778.28;5034104;28;8841;-76
2021/06/02 14:49:19;;;;;;;;;3.75;3.75;;;;;18.72;82.13;100777.88;5033530;28;8841;-78
2021/06/02 14:52:16;;;;;;;;;3.00;3.00;;;;;18.56;83.27;100776.06;5046083;28;8927;-78
2021/06/02 14:55:11;;;;;;;;;2.75;2.75;;;;;18.69;82.01;100782.22;5033391;28;8845;-76
2021/06/02 14:58:07;;;;;;;;;3.00;3.00;;;;;18.61;83.06;100781.31;5034628;28;8903;-77
2021/06/02 15:01:03;;;;;;;;;3.75;3.75;;;;;18.74;81.76;100790.31;5036433;28;8873;-77
2021/06/02 15:03:59;;;;;;;;;3.00;3.00;;;;;18.85;81.14;100793.19;5033345;28;8849;-77
2021/06/02 15:06:35;;;;;;;;;5.00;5.00;;;;;19.05;80.36;100793.81;5035230;28;8860;-76
2021/06/02 15:09:31;;;;;;;;;2.75;2.75;;;;;19.00;79.69;100808.16;5034818;28;8845;-77
2021/06/02 15:12:29;;;;;;;;;4.00;4.00;;;;;18.83;81.08;100792.78;5034649;28;8865;-77
2021/06/02 15:15:26;;;;;;;;;4.25;4.25;;;;;18.72;81.77;100800.28;5032940;28;9038;-77
2021/06/02 15:18:23;;;;;;;;;3.00;3.00;;;;;18.83;81.19;100801.19;5036140;28;8830;-77
2021/06/02 15:21:20;;;;;;;;;3.25;3.25;;;;;18.68;82.52;100802.22;5036044;28;8881;-77
2021/06/02 15:24:19;;;;;;;;;3.75;3.75;;;;;18.76;81.98;100807.53;5034665;28;8822;-77
2021/06/02 15:27:19;;;;;;;;;3.75;3.75;;;;;18.81;81.37;100806.38;5032995;28;8853;-78
2021/06/02 15:30:21;;;;;;;;;3.25;3.25;;;;;18.78;82.07;100801.53;5032021;28;8860;-78
2021/06/02 15:33:18;;;;;;;;;5.00;5.00;;;;;18.79;81.93;100803.97;5034329;28;8879;-78
2021/06/02 15:36:14;;;;;;;;;2.75;2.75;;;;;18.79;81.84;100800.38;5034271;28;8915;-77
2021/06/02 15:38:43;;;;;;;;;4.00;4.00;;;;;18.98;80.90;100802.16;5033495;28;8867;-78
2021/06/02 15:41:40;;;;;;;;;6.00;5.00;;;;;18.47;83.61;100797.94;5032535;28;8914;-77
2021/06/02 15:44:36;;;;;;;;;2.75;2.75;;;;;18.56;83.34;100792.06;5033990;28;9551;-77
2021/06/02 15:47:32;;;;;;;;;3.00;3.00;;;;;18.66;82.75;100799.81;5032942;28;8914;-77
2021/06/02 15:50:30;;;;;;;;;2.25;2.25;;;;;18.46;83.34;100796.34;5034494;28;9705;-78
2021/06/02 15:53:30;;;;;;;;;1.25;1.25;;;;;18.64;82.38;100795.75;5021753;28;8919;-77
2021/06/02 15:56:29;;;;;;;;;2.25;2.25;;;;;18.51;83.81;100796.00;5032955;28;8935;-78
2021/06/02 15:59:28;;;;;;;;;4.00;4.00;;;;;18.56;83.20;100794.88;5032197;28;8952;-78
2021/06/02 16:02:24;;;;;;;;;3.00;3.00;;;;;18.52;83.92;100797.63;5032923;28;8915;-78
2021/06/02 16:05:22;;;;;;;;;2.25;2.25;;;;;18.77;82.04;100800.72;5033742;28;8894;-78
2021/06/02 16:08:18;;;;;;;;;3.00;3.00;;;;;18.81;81.58;100803.59;5033578;28;8857;-78
2021/06/02 16:11:16;;;;;;;;;3.00;3.00;;;;;18.82;82.23;100802.38;5035709;28;8888;-80
2021/06/02 16:14:13;;;;;;;;;3.00;3.00;;;;;18.78;82.90;100802.34;5061617;28;8825;-80
2021/06/02 16:17:08;;;;;;;;;4.50;4.50;;;;;18.72;83.33;100800.28;5065018;28;8853;-80
2021/06/02 16:20:06;;;;;;;;;4.50;4.50;;;;;18.81;83.05;100806.38;5060198;28;8931;-79
2021/06/02 16:22:34;;;;;;;;;3.00;3.00;;;;;19.10;81.34;100808.28;5069443;28;8827;-80
2021/06/02 16:25:30;;;;;;;;;3.00;3.00;;;;;18.64;83.09;100801.38;5067425;28;8894;-80
2021/06/02 16:27:58;;;;;;;;;4.50;4.50;;;;;18.56;83.77;100809.69;5055896;28;8837;-80
2021/06/02 16:30:55;;;;;;;;;4.75;4.75;;;;;18.44;84.66;100812.72;5039063;28;8837;-79